Edgewater, MD

9:10 PM EDT on September 26, 2016 (GMT -0400)
| | Change Station
Active Advisory: Coastal Flood Advisory

Elev -9999 ft 0.00 °N, 0.00 °E | Updated

Cloudy
Cloudy
68 °F
Feels Like 68 °F
N
9
Wind Variable Wind from SSW
Gusts 15 mph

Today
High -- | Low -- °F
--% Chance of Precip.
Yesterday
High -- | Low -- °F
Precip. -- in
Pressure 30.04 in
Visibility 10.0 miles
Clouds Overcast 3800 ft
Dew Point 62 °F
Humidity 81%
Rainfall --
Snow Depth Not available.
6:57 AM 6:55 PM
Waning Crescent, 15% visible
METAR KNAK 270054Z AUTO 17010KT 10SM OVC038 22/14 A3003 RMK AO2 SLP170 T02170144
Pressure 30.04 in
Visibility 10.0 miles
Clouds Overcast 3800 ft
Dew Point 62 °F
Humidity 81%
Rainfall --
Snow Depth Not available.
6:57 AM 6:55 PM
Waning Crescent, 15% visible
METAR KNAK 270054Z AUTO 17010KT 10SM OVC038 22/14 A3003 RMK AO2 SLP170 T02170144

10-Day Weather Forecast

Almanac

Astronomy

Sep. 26, 2016 Rise Set
Actual Time
Civil Twilight
Nautical Twilight
Astronomical Twilight
Moon
Length of Visible Light
Length of Day
Tomorrow will be .
, % of the Moon is Illuminated

Today's Extremes

State Highs State Lows

Community

WunderPhotos

Upload Photos

1,941,993 photos uploaded!

WunderBlog® & News

Nearby

Air Quality

  Air Quality AQ Index Pollutant
Not available.

Snow Depth

Station Depth Elevation

Earthquake Activity

City Distance Mag. Time & Date
Minimum magnitude displayed is 2.5.

Coastal Water Temperatures

Place Temperature

Stations

Nearby Weather Stations

Station Location Temp. Windchill Dew Point Humidity Wind Precip. Elev Updated Type
                   

Watches & Warnings

Coastal Flood Advisory
Issued: 7:55 PM EDT Sep. 26, 2016 – National Weather Service

... Coastal Flood Advisory in effect from 1 am to 8 am EDT
Tuesday...

The National Weather Service in Baltimore MD/Washington DC has
issued a coastal Flood Advisory... which is in effect from 1 am to
8 am EDT Tuesday.

* Tidal anomaly... around one foot above normal.

* Timing... around time of high tide tonight.

* Expected impacts... low lying shoreline inundation.

Here are the times of the next high tides
for a few locations from north to south...
on the Chesapeake Bay...

Fort McHenry Baltimore... 4:42 am and 4:55 PM...
Annapolis U.S. Naval Academy... 3:23 am and 3:32 PM...


Precautionary/preparedness actions...

A coastal Flood Advisory indicates that onshore winds and tides
will combine to generate flooding of low areas along the shore.



All tide heights are relative to mean lower low water.
Time of high total tides are approximate to the nearest hour.

Annapolis MD
minor 2.4 ft, moderate 3.3 ft, major 6.0 ft

               total astro
   day/time tide tide anomaly flood
                /ft/ /ft/ /ft/ category
---------- ------- ------- ------- --------
   27/03 am 2.8 1.7 1.1 minor
   27/03 PM 1.8 1.3 0.5 none
   28/04 am 2.2 1.6 0.6 none
   28/04 PM 2.1 1.4 0.7 none
   29/05 am 2.4 1.6 0.8 minor
   29/05 PM 2.3 1.4 0.9 none